Terminal Aerodrome Forecast
Issued by NWS Louisville, KY

Home | Current Version | Previous Version | Text Only | Print | Product List | Glossary On
Versions: 1 2 3 4 5 6 7 8 9 10 11 12 13 14
263
FTUS43 KLMK 090527
TAFSDF
TAF
KSDF 090527Z 0906/1012 21004KT P6SM SCT250
     FM091100 20008KT P6SM BKN100
     FM091500 25015G22KT P6SM VCSH OVC035 PROB30 0917/0921 4SM -SHSN
      OVC025
     FM092100 29015G22KT P6SM VCSH OVC030
     FM100200 29010KT P6SM SCT035=

USA.gov is the U.S. government's official web portal to all federal, state and local government web resources and services.